Time;durP1;ratioP1;P1;durP2;ratioP2;P2;SDS_P1;SDS_P2;PMS_P1;PMS_P2;Temp;Humidity;BMP_temperature;BMP_pressure;BME280_temperature;BME280_humidity;BME280_pressure;Samples;Min_cycle;Max_cycle;Signal;HPM_P1;HPM_P2
2022/09/24 00:00:30;;;;;;;21.20;17.98;;;;;;;12.01;100.00;101244.09;5028684;28;20104;-66
2022/09/24 00:02:56;;;;;;;20.63;18.42;;;;;;;12.00;100.00;101242.31;5028312;28;20045;-67
2022/09/24 00:05:21;;;;;;;18.23;16.35;;;;;;;12.00;100.00;101244.91;5028513;28;20053;-67
2022/09/24 00:07:46;;;;;;;20.75;18.55;;;;;;;12.00;100.00;101237.13;5010079;28;20021;-67
2022/09/24 00:10:12;;;;;;;20.10;17.98;;;;;;;11.97;100.00;101242.22;5028308;28;20044;-67
2022/09/24 00:12:37;;;;;;;19.67;17.60;;;;;;;11.97;100.00;101244.81;5028235;28;20036;-67
2022/09/24 00:15:04;;;;;;;19.83;17.83;;;;;;;11.95;100.00;101238.69;5028384;28;20462;-67
2022/09/24 00:17:29;;;;;;;20.67;18.52;;;;;;;11.93;100.00;101231.66;5027717;28;20496;-66
2022/09/24 00:19:54;;;;;;;22.85;18.80;;;;;;;11.92;100.00;101232.50;5028372;28;20308;-66
2022/09/24 00:22:19;;;;;;;20.50;18.08;;;;;;;11.91;100.00;101234.22;5027716;28;20734;-66
2022/09/24 00:27:28;;;;;;;20.20;18.10;;;;;;;11.89;100.00;101230.72;5028476;28;20204;-66
2022/09/24 00:29:53;;;;;;;19.80;17.70;;;;;;;11.88;100.00;101227.22;5027345;28;20112;-66
2022/09/24 00:32:19;;;;;;;19.27;17.38;;;;;;;11.86;100.00;101230.59;5027506;28;20040;-66
2022/09/24 00:34:44;;;;;;;19.92;17.92;;;;;;;11.85;100.00;101221.03;5028134;28;20052;-66
2022/09/24 00:37:09;;;;;;;21.60;19.42;;;;;;;11.82;100.00;101216.63;5027952;28;20021;-66
2022/09/24 00:39:35;;;;;;;20.65;18.55;;;;;;;11.80;100.00;101210.50;5027819;28;20110;-66
2022/09/24 00:42:00;;;;;;;23.25;18.88;;;;;;;11.80;100.00;101207.88;5026858;28;20029;-66
2022/09/24 00:44:43;;;;;;;22.80;20.60;;;;;;;11.80;100.00;101212.22;5027324;28;20063;-66
2022/09/24 00:47:14;;;;;;;25.23;22.70;;;;;;;11.78;100.00;101212.19;5026920;28;20025;-66
2022/09/24 00:49:41;;;;;;;26.35;23.80;;;;;;;11.77;100.00;101207.78;5025918;28;20061;-66
2022/09/24 00:52:07;;;;;;;25.50;22.90;;;;;;;11.76;100.00;101206.91;5027375;28;20108;-66
2022/09/24 00:54:32;;;;;;;25.05;22.38;;;;;;;11.76;100.00;101206.91;5032837;28;20095;-66
2022/09/24 00:57:00;;;;;;;22.35;20.05;;;;;;;11.78;100.00;101196.59;5036208;28;20465;-66
2022/09/24 00:59:27;;;;;;;20.67;18.75;;;;;;;11.77;100.00;101193.13;5027667;28;20420;-65
2022/09/24 01:01:57;;;;;;;21.40;19.27;;;;;;;11.78;100.00;101196.59;5026406;28;20478;-65
2022/09/24 01:04:25;;;;;;;21.52;19.33;;;;;;;11.77;100.00;101190.50;5027747;28;20065;-65
2022/09/24 01:06:51;;;;;;;20.35;18.45;;;;;;;11.79;100.00;101187.06;5027300;28;20512;-65
2022/09/24 01:09:19;;;;;;;20.50;18.40;;;;;;;11.79;100.00;101189.66;5029336;28;20083;-65
2022/09/24 01:11:54;;;;;;;21.13;18.92;;;;;;;11.76;100.00;101185.28;5027033;28;20485;-65
2022/09/24 01:14:42;;;;;;;21.63;19.27;;;;;;;11.75;100.00;101178.31;5026572;28;20176;-65
2022/09/24 01:17:39;;;;;;;18.95;16.95;;;;;;;11.75;100.00;101174.00;5027622;28;20449;-66
2022/09/24 01:20:28;;;;;;;20.52;18.33;;;;;;;11.74;100.00;101172.25;5016576;28;20060;-65
2022/09/24 01:22:59;;;;;;;17.83;16.13;;;;;;;11.73;100.00;101175.66;5009016;28;20028;-65
2022/09/24 01:25:39;;;;;;;;;;;;;;;11.73;100.00;101170.47;5027552;28;20062;-65
2022/09/24 01:28:32;;;;;;;20.65;18.50;;;;;;;11.72;100.00;101166.13;5028764;28;19959;-65
2022/09/24 01:31:04;;;;;;;24.95;22.45;;;;;;;11.71;100.00;101161.75;5026706;28;20025;-64
2022/09/24 01:33:32;;;;;;;26.10;23.60;;;;;;;11.70;100.00;101160.00;5026757;28;20036;-65
2022/09/24 01:36:05;;;;;;;24.65;22.17;;;;;;;11.69;100.00;101158.25;5026762;28;20507;-65
2022/09/24 01:38:37;;;;;;;25.52;23.08;;;;;;;11.69;100.00;101153.06;5027220;28;20556;-65
2022/09/24 01:41:06;;;;;;;26.55;23.95;;;;;;;11.70;100.00;101154.81;5026760;28;20025;-65
2022/09/24 01:43:32;;;;;;;25.20;22.65;;;;;;;11.70;100.00;101154.81;5026514;28;20046;-65
2022/09/24 01:46:01;;;;;;;23.70;21.38;;;;;;;11.67;100.00;101149.53;5026706;28;20071;-65
2022/09/24 01:48:27;;;;;;;23.75;21.25;;;;;;;11.66;100.00;101152.94;5026701;28;20500;-65
2022/09/24 01:51:07;;;;;;;23.15;20.85;;;;;;;11.66;100.00;101155.53;5026749;28;20354;-65
2022/09/24 01:53:39;;;;;;;22.58;20.40;;;;;;;11.66;100.00;101145.13;5026669;28;20036;-65
2022/09/24 01:56:12;;;;;;;21.88;19.70;;;;;;;11.65;100.00;101146.88;5027013;28;20037;-65
2022/09/24 01:59:03;;;;;;;21.20;19.10;;;;;;;11.64;100.00;101146.78;5026623;28;20033;-65
2022/09/24 02:01:37;;;;;;;22.70;20.23;;;;;;;11.65;100.00;101146.00;5020369;28;20021;-66
2022/09/24 02:04:11;;;;;;;22.70;20.40;;;;;;;11.65;100.00;101143.38;5026862;28;20148;-66
2022/09/24 02:06:43;;;;;;;23.30;21.02;;;;;;;11.65;100.00;101140.78;5025782;28;20384;-66
2022/09/24 02:09:28;;;;;;;24.70;22.20;;;;;;;11.63;100.00;101143.34;5026533;28;20032;-66
2022/09/24 02:11:57;;;;;;;30.13;27.17;;;;;;;11.62;100.00;101136.38;5008929;28;20013;-66
2022/09/24 02:14:23;;;;;;;31.52;28.23;;;;;;;11.62;100.00;101135.50;5026699;28;20029;-66
2022/09/24 02:16:49;;;;;;;28.38;25.35;;;;;;;11.61;100.00;101134.63;5027294;28;20017;-65
2022/09/24 02:19:18;;;;;;;25.30;22.83;;;;;;;11.62;100.00;101132.91;5030614;28;20025;-66
2022/09/24 02:21:45;;;;;;;24.77;22.27;;;;;;;11.64;100.00;101133.81;5042009;28;20072;-66
2022/09/24 02:24:18;;;;;;;24.17;21.65;;;;;;;11.64;100.00;101128.63;5030762;28;20021;-66
2022/09/24 02:26:44;;;;;;;24.02;21.63;;;;;;;11.65;100.00;101135.59;5033399;28;20071;-66
2022/09/24 02:29:10;;;;;;;25.77;23.25;;;;;;;11.67;100.00;101128.75;5038092;28;20022;-66
2022/09/24 02:31:48;;;;;;;24.85;22.30;;;;;;;11.69;100.00;101132.28;5031144;28;20470;-66
2022/09/24 02:34:22;;;;;;;26.33;23.65;;;;;;;11.70;100.00;101123.66;5038612;28;20032;-66
2022/09/24 02:36:58;;;;;;;27.60;24.63;;;;;;;11.70;100.00;101123.66;5030309;28;20025;-66
2022/09/24 02:39:24;;;;;;;27.05;24.15;;;;;;;11.70;100.00;101122.75;5033915;28;20423;-65
2022/09/24 02:41:51;;;;;;;28.83;25.83;;;;;;;11.70;100.00;101127.94;5030113;28;20036;-65
2022/09/24 02:44:17;;;;;;;29.60;26.58;;;;;;;11.70;100.00;101121.06;5029890;28;20045;-65
2022/09/24 02:46:44;;;;;;;31.65;28.55;;;;;;;11.71;100.00;101124.53;5030381;28;20159;-66
2022/09/24 02:49:11;;;;;;;30.35;27.40;;;;;;;11.72;100.00;101128.88;5029828;28;20040;-66
2022/09/24 02:51:36;;;;;;;32.20;29.10;;;;;;;11.69;100.00;101116.72;5029240;28;20039;-66
2022/09/24 02:54:02;;;;;;;31.75;28.50;;;;;;;11.71;100.00;101120.22;5029620;28;20385;-66
2022/09/24 02:56:28;;;;;;;32.58;29.27;;;;;;;11.70;100.00;101115.84;5030248;28;20087;-65
2022/09/24 02:58:54;;;;;;;33.45;30.13;;;;;;;11.69;100.00;101124.50;5029510;28;20167;-65
2022/09/24 03:01:20;;;;;;;34.47;31.00;;;;;;;11.68;100.00;101120.13;5029885;28;20096;-66
2022/09/24 03:03:45;;;;;;;32.35;28.95;;;;;;;11.67;100.00;101113.19;5029818;28;20021;-65
2022/09/24 03:06:12;;;;;;;29.20;26.17;;;;;;;11.67;100.00;101110.59;5029606;28;20021;-65
2022/09/24 03:08:38;;;;;;;31.73;28.00;;;;;;;11.67;100.00;101114.88;5029925;28;20382;-65
2022/09/24 03:11:03;;;;;;;30.35;27.25;;;;;;;11.66;100.00;101108.78;5029972;28;20029;-65
2022/09/24 03:13:29;;;;;;;30.45;27.15;;;;;;;11.68;100.00;101117.53;5029470;28;20037;-65
2022/09/24 03:15:54;;;;;;;30.80;27.58;;;;;;;11.69;100.00;101108.03;5029039;28;20045;-65
2022/09/24 03:18:19;;;;;;;31.35;27.85;;;;;;;11.69;100.00;101110.63;5028794;28;20159;-66
2022/09/24 03:21:00;;;;;;;33.28;29.67;;;;;;;11.67;100.00;101107.97;5029568;28;20053;-65
2022/09/24 03:23:25;;;;;;;33.10;29.58;;;;;;;11.68;100.00;101109.72;5015930;28;20051;-66
2022/09/24 03:25:51;;;;;;;36.83;31.70;;;;;;;11.68;100.00;101112.31;5029187;28;20028;-66
2022/09/24 03:28:16;;;;;;;36.97;32.05;;;;;;;11.69;100.00;101110.63;5028945;28;20030;-66
2022/09/24 03:31:01;;;;;;;33.58;29.98;;;;;;;11.68;100.00;101101.94;5028907;28;20413;-66
2022/09/24 03:33:36;;;;;;;36.35;31.83;;;;;;;11.67;100.00;101107.97;5028788;28;20026;-66
2022/09/24 03:36:07;;;;;;;40.30;33.35;;;;;;;11.68;100.00;101104.53;5028567;28;20033;-66
2022/09/24 03:38:34;;;;;;;36.85;32.13;;;;;;;11.68;100.00;101101.06;5028848;28;20029;-66
2022/09/24 03:41:00;;;;;;;38.75;32.75;;;;;;;11.69;100.00;101105.44;5028744;28;20083;-65
2022/09/24 03:43:25;;;;;;;37.30;32.58;;;;;;;11.68;100.00;101104.53;5028480;28;20048;-65
2022/09/24 03:45:52;;;;;;;40.60;33.90;;;;;;;11.66;100.00;101095.81;5028868;28;20021;-65
2022/09/24 03:48:19;;;;;;;36.17;32.10;;;;;;;11.68;100.00;101094.16;5028881;28;20034;-65
2022/09/24 03:50:45;;;;;;;36.13;31.73;;;;;;;11.68;100.00;101083.78;5028878;28;20021;-65
2022/09/24 03:53:11;;;;;;;39.33;33.35;;;;;;;11.70;100.00;101087.31;5029021;28;20025;-65
2022/09/24 03:55:41;;;;;;;35.63;31.55;;;;;;;11.70;100.00;101091.59;5028245;28;20035;-66
2022/09/24 03:58:07;;;;;;;35.63;31.25;;;;;;;11.69;100.00;101090.75;5029050;28;20057;-65
2022/09/24 04:00:32;;;;;;;35.10;30.73;;;;;;;11.67;100.00;101084.63;5028837;28;20076;-66
2022/09/24 04:02:57;;;;;;;38.03;31.73;;;;;;;11.66;100.00;101082.84;5010603;28;20010;-65
2022/09/24 04:05:22;;;;;;;37.95;31.55;;;;;;;11.67;100.00;101087.22;5028466;28;20021;-66
2022/09/24 04:07:48;;;;;;;39.53;31.77;;;;;;;11.64;100.00;101075.00;5028648;28;20021;-66
2022/09/24 04:10:13;;;;;;;34.22;30.25;;;;;;;11.65;100.00;101073.31;5027899;28;20025;-66
2022/09/24 04:12:38;;;;;;;34.03;29.35;;;;;;;11.64;100.00;101071.53;5028597;28;20197;-66
2022/09/24 04:15:04;;;;;;;35.25;29.27;;;;;;;11.63;100.00;101075.84;5028159;28;20028;-65
2022/09/24 04:17:30;;;;;;;36.17;30.20;;;;;;;11.63;100.00;101070.66;5028465;28;20024;-65
2022/09/24 04:19:58;;;;;;;34.55;29.95;;;;;;;11.62;100.00;101068.03;5028000;28;20025;-65
2022/09/24 04:22:25;;;;;;;34.85;31.15;;;;;;;11.60;100.00;101064.50;5028102;28;20084;-65
2022/09/24 04:24:51;;;;;;;36.95;31.58;;;;;;;11.58;100.00;101058.38;5028055;28;20021;-65
2022/09/24 04:27:16;;;;;;;40.35;31.20;;;;;;;11.59;100.00;101063.59;5028658;28;20108;-65
2022/09/24 04:29:42;;;;;;;37.03;30.73;;;;;;;11.59;100.00;101057.53;5038508;28;20166;-65
2022/09/24 04:32:07;;;;;;;36.50;31.25;;;;;;;11.59;100.00;101060.13;5027681;28;20153;-65
2022/09/24 04:34:32;;;;;;;37.55;31.92;;;;;;;11.58;100.00;101066.16;5027895;28;20069;-66
2022/09/24 04:36:58;;;;;;;38.63;32.30;;;;;;;11.59;100.00;101061.00;5027610;28;20034;-65
2022/09/24 04:39:26;;;;;;;34.50;30.85;;;;;;;11.60;100.00;101064.50;5027207;28;20037;-66
2022/09/24 04:41:52;;;;;;;39.92;32.47;;;;;;;11.59;100.00;101060.13;5028949;28;20033;-65
2022/09/24 04:44:17;;;;;;;38.10;32.67;;;;;;;11.58;100.00;101064.44;5027234;28;20056;-65
2022/09/24 04:46:42;;;;;;;39.17;33.50;;;;;;;11.59;100.00;101071.38;5027841;28;20022;-65
2022/09/24 04:49:08;;;;;;;38.10;32.47;;;;;;;11.59;100.00;101067.91;5027899;28;20018;-65
2022/09/24 04:51:34;;;;;;;39.42;34.55;;;;;;;11.61;100.00;101071.44;5027708;28;20032;-65
2022/09/24 04:54:01;;;;;;;38.65;33.67;;;;;;;11.60;100.00;101072.28;5026933;28;20029;-65
2022/09/24 04:56:27;;;;;;;38.70;34.47;;;;;;;11.58;100.00;101069.66;5027245;28;20029;-65
2022/09/24 04:58:53;;;;;;;42.70;36.30;;;;;;;11.57;100.00;101069.56;5027400;28;20805;-65
2022/09/24 05:01:19;;;;;;;40.42;35.22;;;;;;;11.57;100.00;101069.56;5027601;28;20029;-65
2022/09/24 05:03:44;;;;;;;45.22;37.22;;;;;;;11.56;100.00;101070.41;5027897;28;20055;-66
2022/09/24 05:06:09;;;;;;;39.92;35.47;;;;;;;11.57;100.00;101069.56;5027251;28;20025;-65
2022/09/24 05:08:35;;;;;;;38.97;34.35;;;;;;;11.58;100.00;101071.34;5027607;28;20111;-65
2022/09/24 05:11:01;;;;;;;41.00;33.70;;;;;;;11.57;100.00;101069.56;5026749;28;20033;-65
2022/09/24 05:13:27;;;;;;;38.58;32.08;;;;;;;11.58;100.00;101073.94;5026983;28;20030;-65
2022/09/24 05:15:52;;;;;;;37.65;33.55;;;;;;;11.57;100.00;101077.34;5028347;28;20080;-65
2022/09/24 05:18:18;;;;;;;37.63;30.83;;;;;;;11.57;100.00;101069.56;5039415;28;20041;-65
2022/09/24 05:20:43;;;;;;;37.53;31.58;;;;;;;11.55;100.00;101068.66;5025630;28;20028;-65
2022/09/24 05:23:08;;;;;;;34.45;29.02;;;;;;;11.56;100.00;101079.09;5026255;28;20017;-65
2022/09/24 05:27:07;;;;;;;34.45;30.23;;;;;;;11.57;100.00;101077.34;5026882;28;20308;-65
2022/09/24 05:28:20;;;;;;;32.65;29.20;;;;;;;11.55;100.00;101072.13;5032959;28;20127;-65
2022/09/24 05:30:46;;;;;;;33.88;28.88;;;;;;;11.56;100.00;101078.19;5027360;28;20493;-65
2022/09/24 05:33:11;;;;;;;37.22;29.65;;;;;;;11.55;100.00;101081.63;5026147;28;20022;-66
2022/09/24 05:35:37;;;;;;;33.42;29.35;;;;;;;11.55;100.00;101079.03;5025958;28;20485;-65
2022/09/24 05:38:02;;;;;;;33.13;29.05;;;;;;;11.55;100.00;101081.63;5025611;28;20100;-65
2022/09/24 05:43:11;;;;;;;38.22;30.92;;;;;;;11.52;100.00;101078.09;5030219;28;20063;-65
2022/09/24 05:45:36;;;;;;;32.15;28.25;;;;;;;11.50;100.00;101076.28;5028873;28;20021;-65
2022/09/24 05:48:02;;;;;;;33.63;28.80;;;;;;;11.49;100.00;101083.22;5024016;28;20026;-65
2022/09/24 05:50:27;;;;;;;34.08;29.77;;;;;;;11.49;100.00;101080.63;5024658;28;20124;-66
2022/09/24 05:52:53;;;;;;;34.10;29.70;;;;;;;11.49;100.00;101084.91;5037021;28;20111;-66
2022/09/24 05:55:19;;;;;;;31.45;27.45;;;;;;;11.46;100.00;101085.69;5027836;28;20037;-66
2022/09/24 05:57:44;;;;;;;30.45;26.80;;;;;;;11.46;100.00;101074.44;5027182;28;20025;-65
2022/09/24 06:00:10;;;;;;;33.03;27.63;;;;;;;11.45;100.00;101086.53;5028157;28;20526;-65
2022/09/24 06:02:35;;;;;;;31.33;26.48;;;;;;;11.46;100.00;101083.09;5030627;28;20029;-65
2022/09/24 06:05:00;;;;;;;31.90;26.73;;;;;;;11.49;100.00;101083.22;5030309;28;20025;-65
2022/09/24 06:07:26;;;;;;;33.05;26.80;;;;;;;11.51;100.00;101091.91;5030553;28;20033;-65
2022/09/24 06:09:51;;;;;;;30.75;27.48;;;;;;;11.51;100.00;101085.84;5029359;28;20436;-65
2022/09/24 06:12:16;;;;;;;30.02;26.80;;;;;;;11.53;100.00;101091.97;5030569;28;20083;-65
2022/09/24 06:14:42;;;;;;;28.85;25.30;;;;;;;11.52;100.00;101098.88;5030738;28;20055;-65
2022/09/24 06:17:08;;;;;;;30.10;25.83;;;;;;;11.53;100.00;101094.56;5030694;28;20026;-65
2022/09/24 06:19:34;;;;;;;32.08;27.60;;;;;;;11.52;100.00;101098.88;5030207;28;20095;-65
2022/09/24 06:21:59;;;;;;;31.90;26.55;;;;;;;11.49;100.00;101093.59;5030238;28;20029;-65
2022/09/24 06:24:25;;;;;;;32.13;27.63;;;;;;;11.51;100.00;101091.91;5029535;28;20040;-65
2022/09/24 06:26:51;;;;;;;32.88;28.33;;;;;;;11.49;100.00;101093.59;5030497;28;20022;-66
2022/09/24 06:29:16;;;;;;;29.63;26.13;;;;;;;11.50;100.00;101090.16;5029817;28;20029;-65
2022/09/24 06:31:41;;;;;;;31.42;27.35;;;;;;;11.51;100.00;101093.63;5029401;28;20115;-65
2022/09/24 06:34:07;;;;;;;31.08;27.50;;;;;;;11.50;100.00;101097.94;5029538;28;20017;-65
2022/09/24 06:36:32;;;;;;;33.63;28.48;;;;;;;11.50;100.00;101102.22;5030065;28;20044;-65
2022/09/24 06:38:58;;;;;;;34.70;27.63;;;;;;;11.50;100.00;101097.03;5029539;28;20045;-66
2022/09/24 06:41:23;;;;;;;33.22;28.95;;;;;;;11.50;100.00;101100.53;5029480;28;20313;-65
2022/09/24 06:43:48;;;;;;;34.58;27.52;;;;;;;11.51;100.00;101109.22;5029666;28;20103;-65
2022/09/24 06:46:14;;;;;;;32.63;27.00;;;;;;;11.50;100.00;101100.53;5032187;28;20430;-65
2022/09/24 06:48:40;;;;;;;33.72;27.75;;;;;;;11.51;100.00;101107.47;5028193;28;20025;-65
2022/09/24 06:51:06;;;;;;;35.53;28.02;;;;;;;11.55;100.00;101112.78;5029009;28;20021;-65
2022/09/24 06:53:32;;;;;;;36.45;28.15;;;;;;;11.52;100.00;101108.34;5029332;28;20080;-65
2022/09/24 06:55:58;;;;;;;34.45;27.98;;;;;;;11.53;100.00;101111.00;5028638;28;20052;-65
2022/09/24 06:58:24;;;;;;;32.60;28.40;;;;;;;11.55;100.00;101113.63;5035651;28;20063;-65
2022/09/24 07:00:57;;;;;;;38.38;28.65;;;;;;;11.57;100.00;101113.69;5032326;28;20037;-65
2022/09/24 07:03:24;;;;;;;36.00;28.52;;;;;;;11.56;100.00;101109.34;5029299;28;20036;-65
2022/09/24 07:05:49;;;;;;;34.33;28.83;;;;;;;11.57;100.00;101108.50;5028813;28;20052;-65
2022/09/24 07:08:16;;;;;;;35.55;28.95;;;;;;;11.57;100.00;101111.97;5033403;28;20455;-66
2022/09/24 07:10:44;;;;;;;33.55;28.55;;;;;;;11.58;100.00;101120.66;5035602;28;20068;-65
2022/09/24 07:13:13;;;;;;;35.97;29.48;;;;;;;11.58;100.00;101112.88;5019734;28;20029;-65
2022/09/24 07:15:39;;;;;;;36.30;29.30;;;;;;;11.58;100.00;101118.06;5033467;28;20021;-66
2022/09/24 07:18:05;;;;;;;35.20;29.02;;;;;;;11.60;100.00;101122.47;5037617;28;20188;-66
2022/09/24 07:20:32;;;;;;;36.15;29.88;;;;;;;11.60;100.00;101119.84;5028044;28;20225;-65
2022/09/24 07:22:57;;;;;;;38.03;29.92;;;;;;;11.62;100.00;101125.13;5027203;28;20497;-66
2022/09/24 07:25:23;;;;;;;35.63;30.00;;;;;;;11.62;100.00;101120.78;5027895;28;20052;-65
2022/09/24 07:27:48;;;;;;;38.25;30.20;;;;;;;11.63;100.00;101122.59;5028028;28;20061;-65
2022/09/24 07:30:14;;;;;;;36.22;31.38;;;;;;;11.64;100.00;101121.72;5027750;28;20036;-65
2022/09/24 07:32:39;;;;;;;40.67;31.80;;;;;;;11.64;100.00;101123.44;5028457;28;20598;-65
2022/09/24 07:35:05;;;;;;;36.20;28.88;;;;;;;11.65;100.00;101130.41;5027789;28;20033;-65
2022/09/24 07:37:33;;;;;;;35.78;30.17;;;;;;;11.65;100.00;101133.00;5039315;28;20386;-65
2022/09/24 07:39:59;;;;;;;35.95;29.95;;;;;;;11.65;100.00;101133.91;5041984;28;20055;-65
2022/09/24 07:42:24;;;;;;;37.17;29.35;;;;;;;11.66;100.00;101134.75;5038928;28;20045;-66
2022/09/24 07:44:50;;;;;;;34.45;30.20;;;;;;;11.63;100.00;101137.25;5028179;28;20411;-66
2022/09/24 07:47:16;;;;;;;35.90;30.45;;;;;;;11.63;100.00;101142.44;5028183;28;20078;-66
2022/09/24 07:49:41;;;;;;;34.05;29.05;;;;;;;11.64;100.00;101133.81;5009709;28;20104;-66
2022/09/24 07:52:07;;;;;;;35.65;30.02;;;;;;;11.65;100.00;101140.78;5027296;28;20036;-66
2022/09/24 07:54:32;;;;;;;37.40;30.70;;;;;;;11.66;100.00;101142.53;5027779;28;20029;-66
2022/09/24 07:56:58;;;;;;;37.65;31.38;;;;;;;11.68;100.00;101147.78;5027759;28;20026;-66
2022/09/24 07:59:23;;;;;;;35.50;30.70;;;;;;;11.69;100.00;101140.06;5035118;28;20083;-66
2022/09/24 08:01:49;;;;;;;40.60;30.85;;;;;;;11.69;100.00;101142.66;5030895;28;20033;-66
2022/09/24 08:04:14;;;;;;;36.80;30.73;;;;;;;11.71;100.00;101146.16;5027536;28;20429;-66
2022/09/24 08:06:40;;;;;;;37.33;31.17;;;;;;;11.71;100.00;101150.50;5027681;28;20790;-66
2022/09/24 08:09:05;;;;;;;39.03;31.25;;;;;;;11.71;100.00;101148.75;5028147;28;20496;-66
2022/09/24 08:11:32;;;;;;;37.20;30.25;;;;;;;11.72;100.00;101155.75;5028469;28;20065;-64
2022/09/24 08:13:57;;;;;;;34.65;30.52;;;;;;;11.72;100.00;101158.34;5027609;28;20033;-63
2022/09/24 08:16:25;;;;;;;36.17;31.23;;;;;;;11.73;100.00;101156.59;5027519;28;20063;-63
2022/09/24 08:18:51;;;;;;;33.13;29.52;;;;;;;11.73;100.00;101154.91;5028367;28;20029;-63
2022/09/24 08:21:16;;;;;;;34.40;29.80;;;;;;;11.75;100.00;101157.53;5028101;28;20531;-63
2022/09/24 08:23:42;;;;;;;35.67;31.80;;;;;;;11.75;100.00;101162.72;5027969;28;20545;-63
2022/09/24 08:26:11;;;;;;;39.63;31.13;;;;;;;11.76;100.00;101170.56;5027307;28;20029;-63
2022/09/24 08:28:39;;;;;;;38.50;31.35;;;;;;;11.76;100.00;101165.38;5026940;28;20083;-63
2022/09/24 08:31:10;;;;;;;36.03;31.73;;;;;;;11.77;100.00;101167.16;5026550;28;20053;-63
2022/09/24 08:33:36;;;;;;;40.92;33.10;;;;;;;11.79;100.00;101163.72;5028861;28;20037;-63
2022/09/24 08:36:04;;;;;;;37.38;31.30;;;;;;;11.82;100.00;101169.03;5024155;28;20405;-63
2022/09/24 08:38:29;;;;;;;38.63;31.77;;;;;;;11.84;100.00;101172.53;5038790;28;20021;-63
2022/09/24 08:41:06;;;;;;;36.63;30.60;;;;;;;11.86;100.00;101176.06;5024471;28;20347;-63
2022/09/24 08:43:40;;;;;;;36.78;30.55;;;;;;;11.89;100.00;101178.78;5032248;28;20045;-63
2022/09/24 08:49:12;;;;;;;38.85;32.58;;;;;;;11.93;100.00;101178.03;5024902;28;20102;-63
2022/09/24 08:51:53;;;;;;;36.28;30.77;;;;;;;11.93;100.00;101177.13;5026484;28;20385;-63
2022/09/24 08:54:22;;;;;;;34.90;31.08;;;;;;;11.92;100.00;101176.28;5025718;28;20064;-63
2022/09/24 08:56:50;;;;;;;36.28;30.77;;;;;;;11.94;100.00;101177.19;5025326;28;20306;-63
2022/09/24 08:59:23;;;;;;;35.45;29.77;;;;;;;11.96;100.00;101183.31;5025557;28;20386;-63
2022/09/24 09:02:00;;;;;;;38.17;32.63;;;;;;;11.99;100.00;101192.91;5025540;28;20040;-63
2022/09/24 09:04:52;;;;;;;39.10;31.67;;;;;;;11.97;100.00;101185.09;5023270;28;20091;-63
2022/09/24 09:07:22;;;;;;;38.00;32.28;;;;;;;11.99;100.00;101183.44;5025569;28;20029;-63
2022/09/24 09:10:26;;;;;;;36.80;31.10;;;;;;;12.00;100.00;101185.16;5026637;28;20563;-63
2022/09/24 09:13:05;;;;;;;36.70;31.08;;;;;;;12.03;100.00;101189.59;5027360;28;20521;-63
2022/09/24 09:15:36;;;;;;;37.20;32.03;;;;;;;12.04;100.00;101191.34;5026873;28;20029;-64
2022/09/24 09:18:25;;;;;;;40.45;31.45;;;;;;;12.04;100.00;101195.66;5026800;28;20155;-64
2022/09/24 09:20:51;;;;;;;39.17;31.23;;;;;;;12.06;100.00;101192.28;5026464;28;20543;-63
2022/09/24 09:23:20;;;;;;;36.45;31.48;;;;;;;12.07;100.00;101193.16;5027223;28;20024;-63
2022/09/24 09:25:58;;;;;;;36.30;31.13;;;;;;;12.10;100.00;101195.91;5026575;28;20541;-64
2022/09/24 09:28:26;;;;;;;36.72;30.58;;;;;;;12.11;100.00;101193.34;5037673;28;20025;-63
2022/09/24 09:31:05;;;;;;;38.60;31.17;;;;;;;12.16;100.00;101195.22;5042613;28;20056;-63
2022/09/24 09:33:48;;;;;;;36.85;31.67;;;;;;;12.19;100.00;101196.19;5033424;28;20033;-63
2022/09/24 09:36:34;;;;;;;36.42;32.53;;;;;;;12.20;100.00;101203.13;5026799;28;20040;-63
2022/09/24 09:39:04;;;;;;;36.13;31.40;;;;;;;12.24;100.00;101194.59;5027309;28;20075;-63
2022/09/24 09:41:34;;;;;;;36.22;31.88;;;;;;;12.27;100.00;101193.81;5027185;28;20076;-64
2022/09/24 09:44:14;;;;;;;41.03;33.67;;;;;;;12.29;100.00;101197.34;5026816;28;20048;-63
2022/09/24 09:46:48;;;;;;;38.60;33.40;;;;;;;12.31;100.00;101194.78;5026621;28;20049;-63
2022/09/24 09:49:14;;;;;;;38.25;32.20;;;;;;;12.31;100.00;101194.78;5026894;28;20100;-63
2022/09/24 09:51:43;;;;;;;38.38;31.80;;;;;;;12.33;100.00;101198.31;5026665;28;20033;-63
2022/09/24 09:54:08;;;;;;;38.75;31.90;;;;;;;12.33;100.00;101193.13;5035866;28;20018;-64
2022/09/24 09:56:49;;;;;;;34.85;30.80;;;;;;;12.28;100.00;101192.09;5036061;28;20026;-63
2022/09/24 09:59:20;;;;;;;34.45;29.98;;;;;;;12.33;100.00;101198.31;5025568;28;20067;-63
2022/09/24 10:01:54;;;;;;;34.20;29.83;;;;;;;12.37;100.00;101197.59;5025711;28;20028;-63
2022/09/24 10:04:35;;;;;;;35.50;31.65;;;;;;;12.42;100.00;101200.31;5033034;28;20037;-64
2022/09/24 10:07:09;;;;;;;34.83;30.58;;;;;;;12.44;100.00;101202.13;5034018;28;20345;-64
2022/09/24 10:09:35;;;;;;;33.83;29.67;;;;;;;12.43;100.00;101200.34;5026624;28;20022;-64
2022/09/24 10:12:20;;;;;;;34.42;30.52;;;;;;;12.47;100.00;101206.53;5017076;28;20455;-66
2022/09/24 10:15:00;;;;;;;33.72;29.90;;;;;;;12.47;100.00;101194.41;5026627;28;20132;-66
2022/09/24 10:17:35;;;;;;;36.33;31.40;;;;;;;12.50;100.00;101198.84;5035168;28;20498;-64
2022/09/24 10:20:07;;;;;;;36.03;32.28;;;;;;;12.52;100.00;101197.13;5025362;28;20377;-66
2022/09/24 10:22:32;;;;;;;;;;;;;;;12.53;100.00;101192.84;5022307;28;20029;-66
2022/09/24 10:24:59;;;;;;;37.60;31.50;;;;;;;12.54;100.00;101192.88;5026321;28;19920;-64
2022/09/24 10:27:36;;;;;;;36.00;32.25;;;;;;;12.56;100.00;101188.59;5042035;28;20653;-64
2022/09/24 10:32:59;;;;;;;33.88;29.98;;;;;;;12.55;100.00;101184.25;5026173;28;20138;-64
2022/09/24 10:35:34;;;;;;;34.85;31.15;;;;;;;12.59;100.00;101191.28;5024815;28;20512;-64
2022/09/24 10:38:13;;;;;;;33.40;29.90;;;;;;;12.60;100.00;101189.59;5026656;28;20021;-63
2022/09/24 10:40:40;;;;;;;35.05;30.45;;;;;;;12.60;100.00;101193.06;5028287;28;20057;-63
2022/09/24 10:43:06;;;;;;;33.85;30.30;;;;;;;12.63;100.00;101199.19;5031728;28;20049;-64
2022/09/24 10:45:46;;;;;;;32.63;29.25;;;;;;;12.65;100.00;101195.78;5044196;28;20306;-63
2022/09/24 10:48:26;;;;;;;34.08;30.40;;;;;;;12.66;100.00;101205.38;5028183;28;20409;-63
2022/09/24 10:51:03;;;;;;;34.70;30.95;;;;;;;12.68;100.00;101206.28;5040844;28;20389;-64
2022/09/24 10:54:27;;;;;;;33.53;30.23;;;;;;;12.73;100.00;101202.13;5038795;28;20041;-63
2022/09/24 10:56:56;;;;;;;32.10;28.40;;;;;;;12.80;100.00;101210.97;4906846;29;20079;-64
2022/09/24 10:59:45;;;;;;;32.35;29.00;;;;;;;12.85;100.00;101203.28;4918877;29;20314;-63
2022/09/24 11:02:29;;;;;;;34.13;30.02;;;;;;;12.87;100.00;101206.81;5001318;28;20393;-63
2022/09/24 11:04:58;;;;;;;31.30;28.00;;;;;;;12.89;100.00;101205.16;5028873;28;20037;-63
2022/09/24 11:07:58;;;;;;;30.45;26.60;;;;;;;12.87;100.00;101209.41;5029101;28;20041;-63
2022/09/24 11:10:34;;;;;;;29.08;26.20;;;;;;;12.86;100.00;101205.06;5020958;28;20033;-63
2022/09/24 11:13:14;;;;;;;27.30;24.48;;;;;;;12.85;100.00;101217.19;5029085;28;20059;-63
2022/09/24 11:15:55;;;;;;;30.38;25.88;;;;;;;12.84;100.00;101212.78;5029442;28;20040;-63
2022/09/24 11:18:52;;;;;;;28.25;25.23;;;;;;;12.84;100.00;101207.59;5029244;28;20036;-62
2022/09/24 11:21:23;;;;;;;29.35;25.98;;;;;;;12.86;100.00;101220.66;5029251;28;20025;-63
2022/09/24 11:24:19;;;;;;;29.92;26.73;;;;;;;12.91;100.00;101208.69;5029542;28;20109;-63